createdAt,value
2022-11-27T00:00:26.171Z,101228.47
2022-11-27T00:03:00.377Z,101225.88
2022-11-27T00:05:36.293Z,101223.19
2022-11-27T00:08:07.574Z,101221.25
2022-11-27T00:10:47.773Z,101230.84
2022-11-27T00:13:35.968Z,101214.16
2022-11-27T00:16:14.433Z,101218.53
2022-11-27T00:18:48.121Z,101210.66
2022-11-27T00:21:26.993Z,101206.25
2022-11-27T00:24:02.248Z,101204.47
2022-11-27T00:26:38.292Z,101207.97
2022-11-27T00:29:17.724Z,101192.28
2022-11-27T00:31:53.024Z,101200.09
2022-11-27T00:34:24.481Z,101187.00
2022-11-27T00:36:55.909Z,101184.38
2022-11-27T00:39:28.010Z,101188.69
2022-11-27T00:42:03.049Z,101193.78
2022-11-27T00:44:38.001Z,101192.06
2022-11-27T00:47:16.017Z,101191.19
2022-11-27T00:49:51.004Z,101183.28
2022-11-27T00:52:27.501Z,101188.47
2022-11-27T00:55:07.348Z,101186.69
2022-11-27T00:57:41.837Z,101190.09
2022-11-27T01:00:14.057Z,101195.19
2022-11-27T01:02:46.570Z,101188.09
2022-11-27T01:05:17.806Z,101181.13
2022-11-27T01:07:51.877Z,101188.09
2022-11-27T01:10:25.336Z,101190.59
2022-11-27T01:12:57.338Z,101195.78
2022-11-27T01:15:57.895Z,101187.03
2022-11-27T01:18:38.257Z,101196.47
2022-11-27T01:21:10.456Z,101195.59
2022-11-27T01:23:44.838Z,101193.81
2022-11-27T01:26:17.904Z,101186.78
2022-11-27T01:28:57.550Z,101182.31
2022-11-27T01:31:34.615Z,101189.09
2022-11-27T01:34:07.690Z,101183.91
2022-11-27T01:36:39.831Z,101168.25
2022-11-27T01:39:20.474Z,101162.94
2022-11-27T01:41:55.090Z,101161.94
2022-11-27T01:44:53.958Z,101160.25
2022-11-27T01:47:32.787Z,101160.97
2022-11-27T01:50:10.054Z,101160.03
2022-11-27T01:52:45.471Z,101153.97
2022-11-27T01:55:23.645Z,101156.56
2022-11-27T01:58:14.044Z,101145.28
2022-11-27T02:00:50.189Z,101145.16
2022-11-27T02:03:30.344Z,101146.88
2022-11-27T02:06:01.172Z,101142.50
2022-11-27T02:08:32.525Z,101146.78
2022-11-27T02:11:13.740Z,101144.09
2022-11-27T02:13:53.565Z,101137.09
2022-11-27T02:16:34.394Z,101137.81
2022-11-27T02:19:18.005Z,101141.31
2022-11-27T02:22:02.755Z,101129.91
2022-11-27T02:24:57.954Z,101140.31
2022-11-27T02:28:07.773Z,101134.00
2022-11-27T02:30:57.984Z,101139.19
2022-11-27T02:33:46.257Z,101141.00
2022-11-27T02:36:31.603Z,101138.28
2022-11-27T02:39:16.252Z,101140.00
2022-11-27T02:41:54.870Z,101126.00
2022-11-27T02:44:35.642Z,101125.81
2022-11-27T02:47:10.745Z,101112.03
2022-11-27T02:49:44.492Z,101105.88
2022-11-27T02:52:24.531Z,101101.47
2022-11-27T02:54:59.527Z,101090.09
2022-11-27T02:57:36.882Z,101085.59
2022-11-27T03:00:21.166Z,101078.72
2022-11-27T03:02:59.358Z,101077.72
2022-11-27T03:05:37.420Z,101078.50
2022-11-27T03:08:24.407Z,101082.72
2022-11-27T03:11:03.117Z,101072.13
2022-11-27T03:13:38.300Z,101070.34
2022-11-27T03:16:12.917Z,101065.94
2022-11-27T03:19:03.077Z,101055.47
2022-11-27T03:21:42.289Z,101051.00
2022-11-27T03:24:21.422Z,101049.19
2022-11-27T03:27:04.299Z,101050.81
2022-11-27T03:29:42.361Z,101049.00
2022-11-27T03:32:15.258Z,101053.28
2022-11-27T03:34:55.657Z,101059.19
2022-11-27T03:37:27.649Z,101066.97
2022-11-27T03:39:59.253Z,101070.38
2022-11-27T03:42:42.464Z,101076.44
2022-11-27T03:45:33.038Z,101068.66
2022-11-27T03:48:19.170Z,101071.16
2022-11-27T03:51:09.708Z,101060.00
2022-11-27T03:53:55.860Z,101063.47
2022-11-27T03:56:38.185Z,101066.06
2022-11-27T03:59:15.896Z,101054.81
2022-11-27T04:01:49.699Z,101054.00
2022-11-27T04:04:22.401Z,101037.41
2022-11-27T04:07:18.989Z,101035.84
2022-11-27T04:09:48.798Z,101033.22
2022-11-27T04:12:21.534Z,101035.00
2022-11-27T04:15:02.702Z,101024.63
2022-11-27T04:17:43.444Z,101022.16
2022-11-27T04:20:22.076Z,101017.84
2022-11-27T04:23:03.092Z,101016.25
2022-11-27T04:25:49.298Z,101009.47
2022-11-27T04:28:23.993Z,101003.47
2022-11-27T04:30:57.860Z,101002.69
2022-11-27T04:33:31.326Z,100999.28
2022-11-27T04:36:02.238Z,100991.59
2022-11-27T04:38:33.198Z,100977.00
2022-11-27T04:41:03.446Z,100971.03
2022-11-27T04:43:37.746Z,100983.19
2022-11-27T04:46:08.142Z,100968.72
2022-11-27T04:48:38.700Z,100966.13
2022-11-27T04:51:11.121Z,100965.31
2022-11-27T04:53:47.126Z,100971.50
2022-11-27T04:56:21.525Z,100973.28
2022-11-27T04:58:59.015Z,100977.69
2022-11-27T05:01:34.571Z,100977.88
2022-11-27T05:04:09.303Z,100961.50
2022-11-27T05:06:48.445Z,100958.91
2022-11-27T05:09:25.373Z,100970.28
2022-11-27T05:12:04.039Z,100953.00
2022-11-27T05:14:37.667Z,100948.00
2022-11-27T05:17:10.163Z,100943.72
2022-11-27T05:19:43.624Z,100966.25
2022-11-27T05:22:29.812Z,100956.88
2022-11-27T05:25:11.400Z,100944.78
2022-11-27T05:27:50.094Z,100937.91
2022-11-27T05:30:26.481Z,100927.59
2022-11-27T05:32:58.116Z,100929.50
2022-11-27T05:35:29.393Z,100935.69
2022-11-27T05:38:08.162Z,100927.88
2022-11-27T05:40:47.994Z,100939.25
2022-11-27T05:43:28.788Z,100932.25
2022-11-27T05:45:59.909Z,100927.28
2022-11-27T05:48:30.160Z,100920.28
2022-11-27T05:51:01.300Z,100916.88
2022-11-27T05:53:35.023Z,100919.56
2022-11-27T05:56:14.859Z,100918.66
2022-11-27T05:58:54.926Z,100910.16
2022-11-27T06:01:26.834Z,100902.38
2022-11-27T06:04:06.079Z,100899.88
2022-11-27T06:06:37.514Z,100899.88
2022-11-27T06:09:13.887Z,100900.78
2022-11-27T06:11:52.634Z,100904.38
2022-11-27T06:14:33.991Z,100900.06
2022-11-27T06:17:07.553Z,100893.25
2022-11-27T06:19:41.735Z,100888.06
2022-11-27T06:22:19.592Z,100899.44
2022-11-27T06:24:50.107Z,100885.66
2022-11-27T06:27:27.787Z,100877.84
2022-11-27T06:30:11.596Z,100879.84
2022-11-27T06:32:43.740Z,100889.41
2022-11-27T06:35:15.260Z,100882.44
2022-11-27T06:37:44.075Z,100884.31
2022-11-27T06:40:13.497Z,100880.00
2022-11-27T06:42:50.924Z,100880.19
2022-11-27T06:45:22.556Z,100879.38
2022-11-27T06:47:51.387Z,100868.97
2022-11-27T06:50:20.348Z,100852.59
2022-11-27T06:52:48.981Z,100850.88
2022-11-27T06:55:23.884Z,100861.38
2022-11-27T06:57:55.965Z,100856.19
2022-11-27T07:00:25.214Z,100853.66
2022-11-27T07:02:56.807Z,100858.84
2022-11-27T07:05:26.297Z,100857.97
2022-11-27T07:07:57.823Z,100856.34
2022-11-27T07:10:29.380Z,100856.34
2022-11-27T07:13:01.585Z,100852.06
2022-11-27T07:15:30.753Z,100853.94
2022-11-27T07:18:01.650Z,100840.06
2022-11-27T07:20:30.312Z,100828.94
2022-11-27T07:22:58.999Z,100819.44
2022-11-27T07:25:28.726Z,100816.09
2022-11-27T07:27:58.729Z,100829.13
2022-11-27T07:30:32.141Z,100818.03
2022-11-27T07:33:03.784Z,100827.69
2022-11-27T07:35:35.723Z,100826.09
2022-11-27T07:38:05.367Z,100826.09
2022-11-27T07:40:34.163Z,100815.88
2022-11-27T07:43:09.171Z,100816.06
2022-11-27T07:45:47.562Z,100812.63
2022-11-27T07:48:16.573Z,100817.22
2022-11-27T07:50:46.448Z,100812.97
2022-11-27T07:53:16.005Z,100806.16
2022-11-27T07:55:45.422Z,100808.13
2022-11-27T07:58:14.256Z,100796.13
2022-11-27T08:00:45.592Z,100797.16
2022-11-27T08:03:14.192Z,100786.03
2022-11-27T08:05:49.303Z,100778.41
2022-11-27T08:08:18.588Z,100783.81
2022-11-27T08:10:50.688Z,100787.44
2022-11-27T08:13:22.361Z,100788.50
2022-11-27T08:16:03.251Z,100788.69
2022-11-27T08:18:32.613Z,100783.66
2022-11-27T08:21:03.020Z,100782.03
2022-11-27T08:23:33.261Z,100784.88
2022-11-27T08:26:08.574Z,100784.16
2022-11-27T08:28:48.544Z,100768.84
2022-11-27T08:31:22.619Z,100770.00
2022-11-27T08:33:51.931Z,100768.47
2022-11-27T08:36:20.719Z,100764.31
2022-11-27T08:38:55.566Z,100773.25
2022-11-27T08:41:24.223Z,100785.63
2022-11-27T08:43:56.571Z,100782.34
2022-11-27T08:46:27.575Z,100779.94
2022-11-27T08:48:57.665Z,100771.38
2022-11-27T08:51:29.823Z,100775.84
2022-11-27T08:54:02.319Z,100760.38
2022-11-27T08:56:33.931Z,100760.53
2022-11-27T08:59:05.032Z,100765.91
2022-11-27T09:01:35.965Z,100760.88
2022-11-27T09:04:05.910Z,100757.53
2022-11-27T09:06:39.306Z,100749.88
2022-11-27T09:09:09.088Z,100750.91
2022-11-27T09:11:44.547Z,100757.19
2022-11-27T09:14:25.247Z,100747.81
2022-11-27T09:17:04.372Z,100745.34
2022-11-27T09:19:39.050Z,100753.25
2022-11-27T09:22:13.264Z,100746.47
2022-11-27T09:24:47.311Z,100742.25
2022-11-27T09:27:16.673Z,100729.38
2022-11-27T09:29:46.003Z,100729.53
2022-11-27T09:32:21.343Z,100725.38
2022-11-27T09:34:53.746Z,100720.25
2022-11-27T09:37:24.160Z,100726.47
2022-11-27T09:39:53.861Z,100719.63
2022-11-27T09:42:37.755Z,100711.09
2022-11-27T09:45:13.422Z,100712.09
2022-11-27T09:47:52.574Z,100706.25
2022-11-27T09:50:34.813Z,100720.31
2022-11-27T09:53:13.036Z,100703.03
2022-11-27T09:55:46.819Z,100700.59
2022-11-27T09:58:19.042Z,100697.25
2022-11-27T10:00:53.527Z,100703.47
2022-11-27T10:03:33.872Z,100708.81
2022-11-27T10:06:14.519Z,100706.44
2022-11-27T10:08:53.006Z,100707.50
2022-11-27T10:11:35.622Z,100714.56
2022-11-27T10:14:21.759Z,100714.75
2022-11-27T10:16:55.429Z,100707.91
2022-11-27T10:19:38.938Z,100702.84
2022-11-27T10:22:21.424Z,100702.16
2022-11-27T10:25:04.171Z,100701.50
2022-11-27T10:27:43.186Z,100701.72
2022-11-27T10:30:19.088Z,100689.69
2022-11-27T10:32:55.749Z,100695.94
2022-11-27T10:35:32.035Z,100689.16
2022-11-27T10:38:11.489Z,100693.72
2022-11-27T10:40:50.488Z,100688.63
2022-11-27T10:43:23.448Z,100686.97
2022-11-27T10:46:00.685Z,100682.69
2022-11-27T10:48:30.227Z,100681.19
2022-11-27T10:51:06.406Z,100680.41
2022-11-27T10:53:38.765Z,100671.84
2022-11-27T10:56:43.122Z,100664.13
2022-11-27T10:59:15.328Z,100670.31
2022-11-27T11:01:46.719Z,100662.69
2022-11-27T11:04:37.478Z,100650.53
2022-11-27T11:07:27.006Z,100650.66
2022-11-27T11:09:56.903Z,100644.56
2022-11-27T11:12:26.397Z,100645.53
2022-11-27T11:14:59.242Z,100642.03
2022-11-27T11:17:41.101Z,100639.47
2022-11-27T11:20:21.965Z,100633.44
2022-11-27T11:22:57.293Z,100628.22
2022-11-27T11:25:37.365Z,100619.47
2022-11-27T11:28:08.520Z,100610.84
2022-11-27T11:30:39.957Z,100608.28
2022-11-27T11:33:18.032Z,100599.66
2022-11-27T11:35:56.252Z,100585.75
2022-11-27T11:38:33.006Z,100584.97
2022-11-27T11:41:06.844Z,100585.00
2022-11-27T11:43:37.700Z,100573.75
2022-11-27T11:46:20.798Z,100578.97
2022-11-27T11:49:03.083Z,100552.91
2022-11-27T11:51:51.132Z,100539.06
2022-11-27T11:54:39.804Z,100515.63
2022-11-27T11:57:23.282Z,100489.53
2022-11-27T12:00:05.536Z,100487.75
2022-11-27T12:02:55.045Z,100497.44
2022-11-27T12:05:38.079Z,100482.66
2022-11-27T12:08:23.025Z,100494.88
2022-11-27T12:11:04.500Z,100489.72
2022-11-27T12:13:51.565Z,100505.50
2022-11-27T12:16:28.713Z,100483.81
2022-11-27T12:19:18.768Z,100471.72
2022-11-27T12:22:02.843Z,100462.22
2022-11-27T12:24:48.132Z,100457.91
2022-11-27T12:27:29.183Z,100451.94
2022-11-27T12:30:12.499Z,100452.00
2022-11-27T12:32:56.815Z,100452.97
2022-11-27T12:35:38.616Z,100437.28
2022-11-27T12:38:38.718Z,100448.69
2022-11-27T12:41:37.684Z,100437.47
2022-11-27T12:44:18.395Z,100438.38
2022-11-27T12:46:56.574Z,100441.94
2022-11-27T12:49:31.633Z,100437.63
2022-11-27T12:52:12.974Z,100436.88
2022-11-27T12:54:48.161Z,100428.28
2022-11-27T12:57:23.728Z,100431.00
2022-11-27T12:59:58.527Z,100425.00
2022-11-27T13:02:33.607Z,100432.88
2022-11-27T13:05:05.634Z,100415.53
2022-11-27T13:07:43.613Z,100407.81
2022-11-27T13:10:23.555Z,100405.34
2022-11-27T13:13:03.219Z,100401.88
2022-11-27T13:15:39.473Z,100394.16
2022-11-27T13:18:20.430Z,100386.47
2022-11-27T13:20:56.004Z,100386.56
2022-11-27T13:23:42.752Z,100388.41
2022-11-27T13:26:26.306Z,100387.63
2022-11-27T13:29:06.639Z,100394.66
2022-11-27T13:31:40.970Z,100375.53
2022-11-27T13:34:21.618Z,100379.16
2022-11-27T13:37:04.475Z,100371.31
2022-11-27T13:39:40.336Z,100368.75
2022-11-27T13:42:23.899Z,100364.44
2022-11-27T13:44:57.844Z,100371.44
2022-11-27T13:47:38.558Z,100368.81
2022-11-27T13:50:18.048Z,100360.97
2022-11-27T13:53:05.641Z,100369.66
2022-11-27T13:55:54.721Z,100375.81
2022-11-27T13:58:35.366Z,100371.44
2022-11-27T14:01:15.658Z,100371.44
2022-11-27T14:03:50.692Z,100365.31
2022-11-27T14:06:27.901Z,100367.94
2022-11-27T14:09:01.345Z,100365.25
2022-11-27T14:11:40.527Z,100367.06
2022-11-27T14:14:21.647Z,100364.38
2022-11-27T14:16:59.627Z,100367.75
2022-11-27T14:19:37.093Z,100357.31
2022-11-27T14:22:20.069Z,100325.91
2022-11-27T14:24:59.280Z,100324.06
2022-11-27T14:27:36.463Z,100324.91
2022-11-27T14:30:25.135Z,100327.44
2022-11-27T14:32:55.997Z,100362.09
2022-11-27T14:35:28.002Z,100368.09
2022-11-27T14:38:11.613Z,100366.34
2022-11-27T14:40:40.689Z,100341.88
2022-11-27T14:43:15.160Z,100340.09
2022-11-27T14:45:46.524Z,100361.75
2022-11-27T14:48:22.159Z,100364.25
2022-11-27T14:50:54.486Z,100373.75
2022-11-27T14:53:27.475Z,100376.34
2022-11-27T14:56:02.384Z,100358.00
2022-11-27T14:58:32.062Z,100354.44
2022-11-27T15:01:07.998Z,100357.00
2022-11-27T15:03:41.195Z,100356.09
2022-11-27T15:06:21.904Z,100336.03
2022-11-27T15:09:09.125Z,100325.59
2022-11-27T15:11:55.548Z,100324.66
2022-11-27T15:14:27.259Z,100315.06
2022-11-27T15:16:58.319Z,100301.03
2022-11-27T15:19:30.866Z,100318.44
2022-11-27T15:22:01.995Z,100326.19
2022-11-27T15:24:34.235Z,100333.94
2022-11-27T15:27:20.132Z,100327.75
2022-11-27T15:30:04.802Z,100330.31
2022-11-27T15:32:56.918Z,100321.56
2022-11-27T15:35:38.501Z,100318.88
2022-11-27T15:38:12.504Z,100332.78
2022-11-27T15:40:42.534Z,100313.53
2022-11-27T15:43:28.161Z,100315.22
2022-11-27T15:46:10.470Z,100303.00
2022-11-27T15:48:57.352Z,100303.75
2022-11-27T15:51:26.412Z,100295.03
2022-11-27T15:53:56.709Z,100288.81
2022-11-27T15:56:25.946Z,100280.13
2022-11-27T15:58:55.178Z,100273.94
2022-11-27T16:01:25.830Z,100265.16
2022-11-27T16:04:10.557Z,100249.44
2022-11-27T16:06:43.810Z,100261.56
2022-11-27T16:09:26.968Z,100259.78
2022-11-27T16:11:59.569Z,100262.34
2022-11-27T16:14:35.405Z,100279.66
2022-11-27T16:17:10.800Z,100270.03
2022-11-27T16:19:48.013Z,100270.00
2022-11-27T16:22:35.681Z,100272.53
2022-11-27T16:25:09.830Z,100272.53
2022-11-27T16:27:43.154Z,100265.56
2022-11-27T16:30:23.008Z,100256.78
2022-11-27T16:32:57.372Z,100249.75
2022-11-27T16:35:43.073Z,100254.09
2022-11-27T16:38:26.073Z,100242.72
2022-11-27T16:41:08.469Z,100234.88
2022-11-27T16:43:50.518Z,100227.91
2022-11-27T16:46:37.001Z,100220.00
2022-11-27T16:49:08.635Z,100220.84
2022-11-27T16:51:45.651Z,100211.19
2022-11-27T16:54:19.289Z,100211.25
2022-11-27T16:56:59.100Z,100224.16
2022-11-27T16:59:32.716Z,100198.94
2022-11-27T17:02:10.506Z,100196.31
2022-11-27T17:04:45.889Z,100198.09
2022-11-27T17:07:18.605Z,100194.56
2022-11-27T17:09:53.647Z,100201.53
2022-11-27T17:12:28.238Z,100185.81
2022-11-27T17:15:04.407Z,100191.09
2022-11-27T17:18:00.034Z,100169.28
2022-11-27T17:20:35.803Z,100164.94
2022-11-27T17:23:24.343Z,100168.50
2022-11-27T17:25:57.223Z,100166.75
2022-11-27T17:28:39.020Z,100134.56
2022-11-27T17:31:25.021Z,100134.56
2022-11-27T17:33:58.054Z,100140.59
2022-11-27T17:36:45.099Z,100132.78
2022-11-27T17:39:16.185Z,100131.97
2022-11-27T17:44:39.422Z,100108.47
2022-11-27T17:47:28.954Z,100105.91
2022-11-27T17:50:02.942Z,100101.56
2022-11-27T17:52:34.870Z,100092.84
2022-11-27T17:55:23.158Z,100112.00
2022-11-27T17:58:05.566Z,100101.56
2022-11-27T18:00:50.561Z,100100.69
2022-11-27T18:03:24.084Z,100090.22
2022-11-27T18:05:55.974Z,100087.63
2022-11-27T18:08:27.997Z,100098.06
2022-11-27T18:11:01.602Z,100089.38
2022-11-27T18:13:39.237Z,100071.97
2022-11-27T18:16:25.015Z,100065.84
2022-11-27T18:19:02.072Z,100074.50
2022-11-27T18:21:58.843Z,100065.75
2022-11-27T18:24:36.504Z,100060.47
2022-11-27T18:27:10.411Z,100056.09
2022-11-27T18:29:47.413Z,100052.63
2022-11-27T18:32:29.458Z,100056.09
2022-11-27T18:35:05.888Z,100055.22
2022-11-27T18:37:42.036Z,100049.94
2022-11-27T18:40:23.535Z,100035.91
2022-11-27T18:43:04.946Z,100028.09
2022-11-27T18:45:41.450Z,100025.44
2022-11-27T18:48:33.179Z,100031.53
2022-11-27T18:51:12.060Z,100042.75
2022-11-27T18:53:52.464Z,100063.63
2022-11-27T18:56:29.754Z,100049.69
2022-11-27T18:59:06.601Z,100073.97
2022-11-27T19:01:47.693Z,100057.44
2022-11-27T19:04:25.637Z,100062.63
2022-11-27T19:06:56.393Z,100053.88
2022-11-27T19:09:32.920Z,100053.88
2022-11-27T19:12:05.929Z,100045.09
2022-11-27T19:14:40.979Z,100017.22
2022-11-27T19:17:25.683Z,100018.91
2022-11-27T19:20:04.115Z,100023.19
2022-11-27T19:22:48.973Z,100024.00
2022-11-27T19:25:32.008Z,100025.69
2022-11-27T19:28:08.925Z,100025.69
2022-11-27T19:30:44.298Z,100009.91
2022-11-27T19:33:14.923Z,100017.75
2022-11-27T19:36:01.484Z,100022.91
2022-11-27T19:38:34.316Z,100003.66
2022-11-27T19:41:22.431Z,100005.34
2022-11-27T19:43:59.468Z,100005.22
2022-11-27T19:46:37.723Z,100001.75
2022-11-27T19:49:20.311Z,99989.56
2022-11-27T19:51:59.090Z,99998.19
2022-11-27T19:54:32.725Z,99996.41
2022-11-27T19:57:08.947Z,99990.34
2022-11-27T20:00:04.497Z,99993.75
2022-11-27T20:02:47.977Z,99991.16
2022-11-27T20:05:18.885Z,99983.22
2022-11-27T20:07:52.480Z,99984.97
2022-11-27T20:10:28.292Z,99978.91
2022-11-27T20:13:05.101Z,99979.78
2022-11-27T20:15:35.918Z,99975.47
2022-11-27T20:18:22.209Z,99973.69
2022-11-27T20:20:53.887Z,99965.88
2022-11-27T20:23:37.368Z,99964.13
2022-11-27T20:26:25.977Z,99957.16
2022-11-27T20:29:06.085Z,99958.81
2022-11-27T20:31:53.892Z,99951.88
2022-11-27T20:34:26.836Z,99946.63
2022-11-27T20:37:08.078Z,99962.19
2022-11-27T20:39:52.305Z,99949.19
2022-11-27T20:42:30.667Z,99950.06
2022-11-27T20:45:13.167Z,99938.75
2022-11-27T20:47:54.223Z,99945.75
2022-11-27T20:50:24.594Z,99943.09
2022-11-27T20:53:03.270Z,99934.44
2022-11-27T20:55:36.952Z,99934.44
2022-11-27T20:58:20.180Z,99933.53
2022-11-27T21:00:53.540Z,99932.66
2022-11-27T21:03:33.905Z,99925.69
2022-11-27T21:06:10.508Z,99925.69
2022-11-27T21:08:43.392Z,99930.06
2022-11-27T21:11:25.444Z,99928.34
2022-11-27T21:14:03.735Z,99928.34
2022-11-27T21:16:45.813Z,99931.81
2022-11-27T21:19:22.064Z,99941.44
2022-11-27T21:21:54.213Z,99930.13
2022-11-27T21:24:30.423Z,99916.19
2022-11-27T21:27:02.444Z,99918.69
2022-11-27T21:29:42.464Z,99899.63
2022-11-27T21:32:23.658Z,99887.41
2022-11-27T21:34:58.937Z,99883.78
2022-11-27T21:37:45.003Z,99882.84
2022-11-27T21:40:22.136Z,99879.25
2022-11-27T21:42:57.910Z,99872.25
2022-11-27T21:45:28.722Z,99867.81
2022-11-27T21:48:06.362Z,99861.69
2022-11-27T21:50:42.693Z,99870.31
2022-11-27T21:53:15.307Z,99864.19
2022-11-27T21:55:52.295Z,99874.59
2022-11-27T21:58:34.385Z,99869.34
2022-11-27T22:01:08.064Z,99871.09
2022-11-27T22:03:51.386Z,99865.81
2022-11-27T22:06:21.415Z,99863.13
2022-11-27T22:09:07.421Z,99863.09
2022-11-27T22:11:44.880Z,99863.03
2022-11-27T22:14:18.198Z,99868.19
2022-11-27T22:16:56.002Z,99856.84
2022-11-27T22:19:29.411Z,99854.19
2022-11-27T22:22:05.878Z,99861.13
2022-11-27T22:24:37.837Z,99851.47
2022-11-27T22:27:12.457Z,99856.69
2022-11-27T22:29:47.303Z,99870.53
2022-11-27T22:32:18.802Z,99873.13
2022-11-27T22:34:55.926Z,99858.34
2022-11-27T22:37:32.348Z,99870.41
2022-11-27T22:40:02.923Z,99866.88
2022-11-27T22:42:31.727Z,99869.44
2022-11-27T22:45:08.812Z,99865.88
2022-11-27T22:47:42.559Z,99858.88
2022-11-27T22:50:16.549Z,99854.47
2022-11-27T22:52:58.057Z,99839.63
2022-11-27T22:55:28.164Z,99847.41
2022-11-27T22:58:08.963Z,99839.53
2022-11-27T23:00:39.294Z,99836.88
2022-11-27T23:03:09.185Z,99841.16
2022-11-27T23:05:41.818Z,99846.28
2022-11-27T23:08:12.761Z,99835.84
2022-11-27T23:10:48.551Z,99829.69
2022-11-27T23:13:20.315Z,99832.22
2022-11-27T23:15:56.748Z,99833.94
2022-11-27T23:18:43.489Z,99825.19
2022-11-27T23:21:15.245Z,99829.50
2022-11-27T23:23:44.832Z,99828.56
2022-11-27T23:26:19.472Z,99822.47
2022-11-27T23:28:49.583Z,99805.91
2022-11-27T23:31:30.079Z,99799.78
2022-11-27T23:34:07.186Z,99798.00
2022-11-27T23:36:41.060Z,99796.22
2022-11-27T23:39:16.108Z,99796.22
2022-11-27T23:41:50.974Z,99792.72
2022-11-27T23:44:24.218Z,99787.50
2022-11-27T23:46:56.558Z,99775.28
2022-11-27T23:49:26.121Z,99766.56
2022-11-27T23:51:59.739Z,99769.16
2022-11-27T23:54:30.416Z,99772.66
2022-11-27T23:57:10.284Z,99774.34
2022-11-27T23:59:42.793Z,99768.28
